sensor_id;sensor_type;location;lat;lon;timestamp;temperature;humidity
18101;DHT22;9177;49.156;8.142;2023-07-29T00:00:26;22.90;99.90
18101;DHT22;9177;49.156;8.142;2023-07-29T00:03:00;22.90;99.90
18101;DHT22;9177;49.156;8.142;2023-07-29T00:05:26;22.90;99.90
18101;DHT22;9177;49.156;8.142;2023-07-29T00:07:55;22.90;99.90
18101;DHT22;9177;49.156;8.142;2023-07-29T00:10:22;22.90;99.90
18101;DHT22;9177;49.156;8.142;2023-07-29T00:12:49;22.90;99.90
18101;DHT22;9177;49.156;8.142;2023-07-29T00:15:17;22.90;99.90
18101;DHT22;9177;49.156;8.142;2023-07-29T00:17:45;22.90;99.90
18101;DHT22;9177;49.156;8.142;2023-07-29T00:20:11;22.90;99.90
18101;DHT22;9177;49.156;8.142;2023-07-29T00:22:38;22.90;99.90
18101;DHT22;9177;49.156;8.142;2023-07-29T00:25:08;22.90;99.90
18101;DHT22;9177;49.156;8.142;2023-07-29T00:27:34;22.90;99.90
18101;DHT22;9177;49.156;8.142;2023-07-29T00:30:01;22.90;99.90
18101;DHT22;9177;49.156;8.142;2023-07-29T00:32:29;22.80;99.90
18101;DHT22;9177;49.156;8.142;2023-07-29T00:34:56;22.90;99.90
18101;DHT22;9177;49.156;8.142;2023-07-29T00:37:26;22.80;99.90
18101;DHT22;9177;49.156;8.142;2023-07-29T00:39:53;22.80;99.90
18101;DHT22;9177;49.156;8.142;2023-07-29T00:42:21;22.90;99.90
18101;DHT22;9177;49.156;8.142;2023-07-29T00:44:48;22.90;99.90
18101;DHT22;9177;49.156;8.142;2023-07-29T00:47:15;22.90;99.90
18101;DHT22;9177;49.156;8.142;2023-07-29T00:49:43;22.90;99.90
18101;DHT22;9177;49.156;8.142;2023-07-29T00:52:11;22.90;99.90
18101;DHT22;9177;49.156;8.142;2023-07-29T00:54:39;22.90;99.90
18101;DHT22;9177;49.156;8.142;2023-07-29T00:57:06;22.80;99.90
18101;DHT22;9177;49.156;8.142;2023-07-29T00:59:36;22.80;99.90
18101;DHT22;9177;49.156;8.142;2023-07-29T01:02:04;22.80;99.90
18101;DHT22;9177;49.156;8.142;2023-07-29T01:04:31;22.80;99.90
18101;DHT22;9177;49.156;8.142;2023-07-29T01:07:03;22.80;99.90
18101;DHT22;9177;49.156;8.142;2023-07-29T01:09:41;22.80;99.90
18101;DHT22;9177;49.156;8.142;2023-07-29T01:12:16;22.80;99.90
18101;DHT22;9177;49.156;8.142;2023-07-29T01:14:53;22.80;99.90
18101;DHT22;9177;49.156;8.142;2023-07-29T01:17:23;22.80;99.90
18101;DHT22;9177;49.156;8.142;2023-07-29T01:20:00;22.80;99.90
18101;DHT22;9177;49.156;8.142;2023-07-29T01:22:29;22.80;99.90
18101;DHT22;9177;49.156;8.142;2023-07-29T01:24:58;22.80;99.90
18101;DHT22;9177;49.156;8.142;2023-07-29T01:27:25;22.80;99.90
18101;DHT22;9177;49.156;8.142;2023-07-29T01:29:52;22.80;99.90
18101;DHT22;9177;49.156;8.142;2023-07-29T01:32:28;22.80;99.90
18101;DHT22;9177;49.156;8.142;2023-07-29T01:34:59;22.80;99.90
18101;DHT22;9177;49.156;8.142;2023-07-29T01:37:30;22.80;99.90
18101;DHT22;9177;49.156;8.142;2023-07-29T01:40:00;22.80;99.90
18101;DHT22;9177;49.156;8.142;2023-07-29T01:42:27;22.80;99.90
18101;DHT22;9177;49.156;8.142;2023-07-29T01:44:54;22.80;99.90
18101;DHT22;9177;49.156;8.142;2023-07-29T01:47:21;22.80;99.90
18101;DHT22;9177;49.156;8.142;2023-07-29T01:49:48;22.80;99.90
18101;DHT22;9177;49.156;8.142;2023-07-29T01:52:15;22.80;99.90
18101;DHT22;9177;49.156;8.142;2023-07-29T01:54:42;22.80;99.90
18101;DHT22;9177;49.156;8.142;2023-07-29T01:57:10;22.80;99.90
18101;DHT22;9177;49.156;8.142;2023-07-29T01:59:40;22.80;99.90
18101;DHT22;9177;49.156;8.142;2023-07-29T02:02:07;22.80;99.90
18101;DHT22;9177;49.156;8.142;2023-07-29T02:04:33;22.80;99.90
18101;DHT22;9177;49.156;8.142;2023-07-29T02:07:00;22.80;99.90
18101;DHT22;9177;49.156;8.142;2023-07-29T02:09:27;22.80;99.90
18101;DHT22;9177;49.156;8.142;2023-07-29T02:11:54;22.80;99.90
18101;DHT22;9177;49.156;8.142;2023-07-29T02:14:22;22.80;99.90
18101;DHT22;9177;49.156;8.142;2023-07-29T02:16:50;22.80;99.90
18101;DHT22;9177;49.156;8.142;2023-07-29T02:19:17;22.80;99.90
18101;DHT22;9177;49.156;8.142;2023-07-29T02:21:43;22.80;99.90
18101;DHT22;9177;49.156;8.142;2023-07-29T02:24:10;22.80;99.90
18101;DHT22;9177;49.156;8.142;2023-07-29T02:26:37;22.80;99.90
18101;DHT22;9177;49.156;8.142;2023-07-29T02:29:04;22.80;99.90
18101;DHT22;9177;49.156;8.142;2023-07-29T02:31:32;22.80;99.90
18101;DHT22;9177;49.156;8.142;2023-07-29T02:34:00;22.80;99.90
18101;DHT22;9177;49.156;8.142;2023-07-29T02:36:27;22.80;99.90
18101;DHT22;9177;49.156;8.142;2023-07-29T02:38:54;22.80;99.90
18101;DHT22;9177;49.156;8.142;2023-07-29T02:41:21;22.80;99.90
18101;DHT22;9177;49.156;8.142;2023-07-29T02:43:49;22.80;99.90
18101;DHT22;9177;49.156;8.142;2023-07-29T02:46:16;22.80;99.90
18101;DHT22;9177;49.156;8.142;2023-07-29T02:48:45;22.80;99.90
18101;DHT22;9177;49.156;8.142;2023-07-29T02:51:12;22.80;99.90
18101;DHT22;9177;49.156;8.142;2023-07-29T02:53:39;22.80;99.90
18101;DHT22;9177;49.156;8.142;2023-07-29T02:56:06;22.80;99.90
18101;DHT22;9177;49.156;8.142;2023-07-29T02:58:34;22.80;99.90
18101;DHT22;9177;49.156;8.142;2023-07-29T03:01:01;22.80;99.90
18101;DHT22;9177;49.156;8.142;2023-07-29T03:03:28;22.80;99.90
18101;DHT22;9177;49.156;8.142;2023-07-29T03:05:59;22.80;99.90
18101;DHT22;9177;49.156;8.142;2023-07-29T03:08:26;22.80;99.90
18101;DHT22;9177;49.156;8.142;2023-07-29T03:10:54;22.80;99.90
18101;DHT22;9177;49.156;8.142;2023-07-29T03:13:20;22.80;99.90
18101;DHT22;9177;49.156;8.142;2023-07-29T03:15:47;22.80;99.90
18101;DHT22;9177;49.156;8.142;2023-07-29T03:18:15;22.80;99.90
18101;DHT22;9177;49.156;8.142;2023-07-29T03:20:42;22.80;99.90
18101;DHT22;9177;49.156;8.142;2023-07-29T03:23:10;22.80;99.90
18101;DHT22;9177;49.156;8.142;2023-07-29T03:25:36;22.80;99.90
18101;DHT22;9177;49.156;8.142;2023-07-29T03:28:03;22.80;99.90
18101;DHT22;9177;49.156;8.142;2023-07-29T03:30:30;22.80;99.90
18101;DHT22;9177;49.156;8.142;2023-07-29T03:32:57;22.80;99.90
18101;DHT22;9177;49.156;8.142;2023-07-29T03:35:24;22.80;99.90
18101;DHT22;9177;49.156;8.142;2023-07-29T03:37:51;22.80;99.90
18101;DHT22;9177;49.156;8.142;2023-07-29T03:40:19;22.70;99.90
18101;DHT22;9177;49.156;8.142;2023-07-29T03:42:46;22.80;99.90
18101;DHT22;9177;49.156;8.142;2023-07-29T03:45:13;22.80;99.90
18101;DHT22;9177;49.156;8.142;2023-07-29T03:47:40;22.70;99.90
18101;DHT22;9177;49.156;8.142;2023-07-29T03:50:07;22.80;99.90
18101;DHT22;9177;49.156;8.142;2023-07-29T03:52:34;22.80;99.90
18101;DHT22;9177;49.156;8.142;2023-07-29T03:55:01;22.70;99.90
18101;DHT22;9177;49.156;8.142;2023-07-29T03:57:30;22.70;99.90
18101;DHT22;9177;49.156;8.142;2023-07-29T03:59:56;22.80;99.90
18101;DHT22;9177;49.156;8.142;2023-07-29T04:02:23;22.80;99.90
18101;DHT22;9177;49.156;8.142;2023-07-29T04:04:50;22.80;99.90
18101;DHT22;9177;49.156;8.142;2023-07-29T04:07:17;22.80;99.90
18101;DHT22;9177;49.156;8.142;2023-07-29T04:09:44;22.80;99.90
18101;DHT22;9177;49.156;8.142;2023-07-29T04:12:11;22.80;99.90
18101;DHT22;9177;49.156;8.142;2023-07-29T04:14:39;22.80;99.90
18101;DHT22;9177;49.156;8.142;2023-07-29T04:17:06;22.80;99.90
18101;DHT22;9177;49.156;8.142;2023-07-29T04:19:38;22.70;99.90
18101;DHT22;9177;49.156;8.142;2023-07-29T04:22:05;22.80;99.90
18101;DHT22;9177;49.156;8.142;2023-07-29T04:24:32;22.80;99.90
18101;DHT22;9177;49.156;8.142;2023-07-29T04:26:59;22.80;99.90
18101;DHT22;9177;49.156;8.142;2023-07-29T04:29:26;22.70;99.90
18101;DHT22;9177;49.156;8.142;2023-07-29T04:31:54;22.80;99.90
18101;DHT22;9177;49.156;8.142;2023-07-29T04:34:21;22.80;99.90
18101;DHT22;9177;49.156;8.142;2023-07-29T04:36:48;22.70;99.90
18101;DHT22;9177;49.156;8.142;2023-07-29T04:39:14;22.80;99.90
18101;DHT22;9177;49.156;8.142;2023-07-29T04:41:41;22.70;99.90
18101;DHT22;9177;49.156;8.142;2023-07-29T04:44:08;22.80;99.90
18101;DHT22;9177;49.156;8.142;2023-07-29T04:46:35;22.80;99.90
18101;DHT22;9177;49.156;8.142;2023-07-29T04:49:05;22.70;99.90
18101;DHT22;9177;49.156;8.142;2023-07-29T04:51:32;22.70;99.90
18101;DHT22;9177;49.156;8.142;2023-07-29T04:53:59;22.80;99.90
18101;DHT22;9177;49.156;8.142;2023-07-29T04:56:26;22.70;99.90
18101;DHT22;9177;49.156;8.142;2023-07-29T04:58:53;22.70;99.90
18101;DHT22;9177;49.156;8.142;2023-07-29T05:01:20;22.70;99.90
18101;DHT22;9177;49.156;8.142;2023-07-29T05:03:47;22.70;99.90
18101;DHT22;9177;49.156;8.142;2023-07-29T05:06:15;22.80;99.90
18101;DHT22;9177;49.156;8.142;2023-07-29T05:08:42;22.70;99.90
18101;DHT22;9177;49.156;8.142;2023-07-29T05:11:09;22.70;99.90
18101;DHT22;9177;49.156;8.142;2023-07-29T05:13:36;22.70;99.90
18101;DHT22;9177;49.156;8.142;2023-07-29T05:16:03;22.70;99.90
18101;DHT22;9177;49.156;8.142;2023-07-29T05:18:30;22.70;99.90
18101;DHT22;9177;49.156;8.142;2023-07-29T05:20:57;22.70;99.90
18101;DHT22;9177;49.156;8.142;2023-07-29T05:23:25;22.70;99.90
18101;DHT22;9177;49.156;8.142;2023-07-29T05:25:52;22.80;99.90
18101;DHT22;9177;49.156;8.142;2023-07-29T05:28:19;22.70;99.90
18101;DHT22;9177;49.156;8.142;2023-07-29T05:30:46;22.80;99.90
18101;DHT22;9177;49.156;8.142;2023-07-29T05:33:13;22.80;99.90
18101;DHT22;9177;49.156;8.142;2023-07-29T05:35:40;22.70;99.90
18101;DHT22;9177;49.156;8.142;2023-07-29T05:38:06;22.70;99.90
18101;DHT22;9177;49.156;8.142;2023-07-29T05:40:35;22.70;99.90
18101;DHT22;9177;49.156;8.142;2023-07-29T05:43:03;22.70;99.90
18101;DHT22;9177;49.156;8.142;2023-07-29T05:45:29;22.70;99.90
18101;DHT22;9177;49.156;8.142;2023-07-29T05:47:57;22.70;99.90
18101;DHT22;9177;49.156;8.142;2023-07-29T05:50:24;22.70;99.90
18101;DHT22;9177;49.156;8.142;2023-07-29T05:52:50;22.70;99.90
18101;DHT22;9177;49.156;8.142;2023-07-29T05:55:17;22.70;99.90
18101;DHT22;9177;49.156;8.142;2023-07-29T05:57:46;22.70;99.90
18101;DHT22;9177;49.156;8.142;2023-07-29T06:00:13;22.70;99.90
18101;DHT22;9177;49.156;8.142;2023-07-29T06:02:39;22.70;99.90
18101;DHT22;9177;49.156;8.142;2023-07-29T06:05:07;22.80;99.90
18101;DHT22;9177;49.156;8.142;2023-07-29T06:07:34;22.70;99.90
18101;DHT22;9177;49.156;8.142;2023-07-29T06:10:01;22.70;99.90
18101;DHT22;9177;49.156;8.142;2023-07-29T06:12:30;22.80;99.90
18101;DHT22;9177;49.156;8.142;2023-07-29T06:15:01;22.80;99.90
18101;DHT22;9177;49.156;8.142;2023-07-29T06:17:28;22.80;99.90
18101;DHT22;9177;49.156;8.142;2023-07-29T06:19:55;22.80;99.90
18101;DHT22;9177;49.156;8.142;2023-07-29T06:22:22;22.70;99.90
18101;DHT22;9177;49.156;8.142;2023-07-29T06:24:48;22.70;99.90
18101;DHT22;9177;49.156;8.142;2023-07-29T06:27:16;22.80;99.90
18101;DHT22;9177;49.156;8.142;2023-07-29T06:29:42;22.80;99.90
18101;DHT22;9177;49.156;8.142;2023-07-29T06:32:11;22.80;99.90
18101;DHT22;9177;49.156;8.142;2023-07-29T06:34:38;22.70;99.90
18101;DHT22;9177;49.156;8.142;2023-07-29T06:37:05;22.80;99.90
18101;DHT22;9177;49.156;8.142;2023-07-29T06:39:32;22.80;99.90
18101;DHT22;9177;49.156;8.142;2023-07-29T06:41:58;22.80;99.90
18101;DHT22;9177;49.156;8.142;2023-07-29T06:44:25;22.80;99.90
18101;DHT22;9177;49.156;8.142;2023-07-29T06:46:52;22.80;99.90
18101;DHT22;9177;49.156;8.142;2023-07-29T06:49:21;22.80;99.90
18101;DHT22;9177;49.156;8.142;2023-07-29T06:51:48;22.80;99.90
18101;DHT22;9177;49.156;8.142;2023-07-29T06:54:16;22.80;99.90
18101;DHT22;9177;49.156;8.142;2023-07-29T06:56:43;22.80;99.90
18101;DHT22;9177;49.156;8.142;2023-07-29T06:59:10;22.80;99.90
18101;DHT22;9177;49.156;8.142;2023-07-29T07:01:37;22.80;99.90
18101;DHT22;9177;49.156;8.142;2023-07-29T07:04:04;22.80;99.90
18101;DHT22;9177;49.156;8.142;2023-07-29T07:06:41;22.80;99.90
18101;DHT22;9177;49.156;8.142;2023-07-29T07:09:08;22.80;99.90
18101;DHT22;9177;49.156;8.142;2023-07-29T07:11:35;22.80;99.90
18101;DHT22;9177;49.156;8.142;2023-07-29T07:14:02;22.80;99.90
18101;DHT22;9177;49.156;8.142;2023-07-29T07:16:29;22.80;99.90
18101;DHT22;9177;49.156;8.142;2023-07-29T07:18:56;22.80;99.90
18101;DHT22;9177;49.156;8.142;2023-07-29T07:21:23;22.80;99.90
18101;DHT22;9177;49.156;8.142;2023-07-29T07:23:52;22.80;99.90
18101;DHT22;9177;49.156;8.142;2023-07-29T07:26:21;22.80;99.90
18101;DHT22;9177;49.156;8.142;2023-07-29T07:28:48;22.80;99.90
18101;DHT22;9177;49.156;8.142;2023-07-29T07:31:15;22.80;99.90
18101;DHT22;9177;49.156;8.142;2023-07-29T07:33:42;22.80;99.90
18101;DHT22;9177;49.156;8.142;2023-07-29T07:36:09;22.80;99.90
18101;DHT22;9177;49.156;8.142;2023-07-29T07:38:37;22.80;99.90
18101;DHT22;9177;49.156;8.142;2023-07-29T07:41:05;22.80;99.90
18101;DHT22;9177;49.156;8.142;2023-07-29T07:43:35;22.80;99.90
18101;DHT22;9177;49.156;8.142;2023-07-29T07:46:03;22.80;99.90
18101;DHT22;9177;49.156;8.142;2023-07-29T07:48:30;22.80;99.90
18101;DHT22;9177;49.156;8.142;2023-07-29T07:50:58;22.80;99.90
18101;DHT22;9177;49.156;8.142;2023-07-29T07:53:25;22.80;99.90
18101;DHT22;9177;49.156;8.142;2023-07-29T07:55:52;22.80;99.90
18101;DHT22;9177;49.156;8.142;2023-07-29T07:58:21;22.80;99.90
18101;DHT22;9177;49.156;8.142;2023-07-29T08:00:48;22.80;99.90
18101;DHT22;9177;49.156;8.142;2023-07-29T08:03:14;22.80;99.90
18101;DHT22;9177;49.156;8.142;2023-07-29T08:05:41;22.80;99.90
18101;DHT22;9177;49.156;8.142;2023-07-29T08:08:09;22.90;99.90
18101;DHT22;9177;49.156;8.142;2023-07-29T08:10:36;22.80;99.90
18101;DHT22;9177;49.156;8.142;2023-07-29T08:13:16;22.80;99.90
18101;DHT22;9177;49.156;8.142;2023-07-29T08:15:48;22.80;99.90
18101;DHT22;9177;49.156;8.142;2023-07-29T08:18:15;22.90;99.90
18101;DHT22;9177;49.156;8.142;2023-07-29T08:20:51;22.90;99.90
18101;DHT22;9177;49.156;8.142;2023-07-29T08:23:19;22.90;99.90
18101;DHT22;9177;49.156;8.142;2023-07-29T08:25:54;22.90;99.90
18101;DHT22;9177;49.156;8.142;2023-07-29T08:28:22;22.90;99.90
18101;DHT22;9177;49.156;8.142;2023-07-29T08:30:50;23.00;99.90
18101;DHT22;9177;49.156;8.142;2023-07-29T08:33:17;23.00;99.90
18101;DHT22;9177;49.156;8.142;2023-07-29T08:35:44;23.00;99.90
18101;DHT22;9177;49.156;8.142;2023-07-29T08:38:11;23.10;99.90
18101;DHT22;9177;49.156;8.142;2023-07-29T08:40:45;23.10;99.90
18101;DHT22;9177;49.156;8.142;2023-07-29T08:43:14;23.10;99.90
18101;DHT22;9177;49.156;8.142;2023-07-29T08:45:44;23.10;99.90
18101;DHT22;9177;49.156;8.142;2023-07-29T08:48:13;23.10;99.90
18101;DHT22;9177;49.156;8.142;2023-07-29T08:50:44;23.10;99.90
18101;DHT22;9177;49.156;8.142;2023-07-29T08:53:12;23.10;99.90
18101;DHT22;9177;49.156;8.142;2023-07-29T08:55:39;23.10;99.90
18101;DHT22;9177;49.156;8.142;2023-07-29T08:58:10;23.10;99.90
18101;DHT22;9177;49.156;8.142;2023-07-29T09:00:38;23.10;99.90
18101;DHT22;9177;49.156;8.142;2023-07-29T09:03:06;23.10;99.90
18101;DHT22;9177;49.156;8.142;2023-07-29T09:05:35;23.10;99.90
18101;DHT22;9177;49.156;8.142;2023-07-29T09:08:03;23.10;99.90
18101;DHT22;9177;49.156;8.142;2023-07-29T09:10:35;23.20;99.90
18101;DHT22;9177;49.156;8.142;2023-07-29T09:13:03;23.20;99.90
18101;DHT22;9177;49.156;8.142;2023-07-29T09:15:33;23.20;99.90
18101;DHT22;9177;49.156;8.142;2023-07-29T09:18:09;23.20;99.90
18101;DHT22;9177;49.156;8.142;2023-07-29T09:20:37;23.20;99.90
18101;DHT22;9177;49.156;8.142;2023-07-29T09:23:07;23.20;99.90
18101;DHT22;9177;49.156;8.142;2023-07-29T09:25:34;23.20;99.90
18101;DHT22;9177;49.156;8.142;2023-07-29T09:28:08;23.20;99.90
18101;DHT22;9177;49.156;8.142;2023-07-29T09:30:35;23.20;99.90
18101;DHT22;9177;49.156;8.142;2023-07-29T09:33:04;23.30;99.90
18101;DHT22;9177;49.156;8.142;2023-07-29T09:35:33;23.30;99.90
18101;DHT22;9177;49.156;8.142;2023-07-29T09:38:02;23.30;99.90
18101;DHT22;9177;49.156;8.142;2023-07-29T09:40:35;23.30;99.90
18101;DHT22;9177;49.156;8.142;2023-07-29T09:43:04;23.30;99.90
18101;DHT22;9177;49.156;8.142;2023-07-29T09:45:34;23.40;99.90
18101;DHT22;9177;49.156;8.142;2023-07-29T09:48:02;23.40;99.90
18101;DHT22;9177;49.156;8.142;2023-07-29T09:50:30;23.40;99.90
18101;DHT22;9177;49.156;8.142;2023-07-29T09:52:58;23.40;99.90
18101;DHT22;9177;49.156;8.142;2023-07-29T09:55:27;23.30;99.90
18101;DHT22;9177;49.156;8.142;2023-07-29T09:57:57;23.30;99.90
18101;DHT22;9177;49.156;8.142;2023-07-29T10:00:27;23.30;99.90
18101;DHT22;9177;49.156;8.142;2023-07-29T10:02:54;23.30;99.90
18101;DHT22;9177;49.156;8.142;2023-07-29T10:05:25;23.30;99.90
18101;DHT22;9177;49.156;8.142;2023-07-29T10:07:52;23.30;99.90
18101;DHT22;9177;49.156;8.142;2023-07-29T10:10:20;23.30;99.90
18101;DHT22;9177;49.156;8.142;2023-07-29T10:12:50;23.30;99.90
18101;DHT22;9177;49.156;8.142;2023-07-29T10:15:17;23.40;99.90
18101;DHT22;9177;49.156;8.142;2023-07-29T10:17:46;23.40;99.90
18101;DHT22;9177;49.156;8.142;2023-07-29T10:20:13;23.40;99.90
18101;DHT22;9177;49.156;8.142;2023-07-29T10:22:43;23.40;99.90
18101;DHT22;9177;49.156;8.142;2023-07-29T10:25:16;23.40;99.90
18101;DHT22;9177;49.156;8.142;2023-07-29T10:27:49;23.40;99.90
18101;DHT22;9177;49.156;8.142;2023-07-29T10:30:19;23.50;99.90
18101;DHT22;9177;49.156;8.142;2023-07-29T10:32:48;23.50;99.90
18101;DHT22;9177;49.156;8.142;2023-07-29T10:35:16;23.50;99.90
18101;DHT22;9177;49.156;8.142;2023-07-29T10:37:44;23.50;99.90
18101;DHT22;9177;49.156;8.142;2023-07-29T10:40:11;23.50;99.90
18101;DHT22;9177;49.156;8.142;2023-07-29T10:43:01;23.50;99.90
18101;DHT22;9177;49.156;8.142;2023-07-29T10:45:37;23.50;99.90
18101;DHT22;9177;49.156;8.142;2023-07-29T10:48:06;23.40;99.90
18101;DHT22;9177;49.156;8.142;2023-07-29T10:50:34;23.40;99.90
18101;DHT22;9177;49.156;8.142;2023-07-29T10:53:01;23.40;99.90
18101;DHT22;9177;49.156;8.142;2023-07-29T10:55:30;23.30;99.90
18101;DHT22;9177;49.156;8.142;2023-07-29T10:58:17;23.40;99.90
18101;DHT22;9177;49.156;8.142;2023-07-29T11:00:44;23.30;99.90
18101;DHT22;9177;49.156;8.142;2023-07-29T11:03:13;23.30;99.90
18101;DHT22;9177;49.156;8.142;2023-07-29T11:05:47;23.30;99.90
18101;DHT22;9177;49.156;8.142;2023-07-29T11:08:22;23.30;99.90
18101;DHT22;9177;49.156;8.142;2023-07-29T11:11:04;23.30;99.90
18101;DHT22;9177;49.156;8.142;2023-07-29T11:13:37;23.40;99.90
18101;DHT22;9177;49.156;8.142;2023-07-29T11:16:05;23.40;99.90
18101;DHT22;9177;49.156;8.142;2023-07-29T11:18:34;23.40;99.90
18101;DHT22;9177;49.156;8.142;2023-07-29T11:21:02;23.40;99.90
18101;DHT22;9177;49.156;8.142;2023-07-29T11:23:31;23.40;99.90
18101;DHT22;9177;49.156;8.142;2023-07-29T11:26:00;23.40;99.90
18101;DHT22;9177;49.156;8.142;2023-07-29T11:28:27;23.40;99.90
18101;DHT22;9177;49.156;8.142;2023-07-29T11:30:57;23.40;99.90
18101;DHT22;9177;49.156;8.142;2023-07-29T11:33:25;23.50;99.90
18101;DHT22;9177;49.156;8.142;2023-07-29T11:35:53;23.50;99.90
18101;DHT22;9177;49.156;8.142;2023-07-29T11:38:22;23.60;99.90
18101;DHT22;9177;49.156;8.142;2023-07-29T11:40:58;23.60;99.90
18101;DHT22;9177;49.156;8.142;2023-07-29T11:43:25;23.60;99.90
18101;DHT22;9177;49.156;8.142;2023-07-29T11:45:53;23.70;99.90
18101;DHT22;9177;49.156;8.142;2023-07-29T11:48:30;23.70;99.90
18101;DHT22;9177;49.156;8.142;2023-07-29T11:50:58;23.70;99.90
18101;DHT22;9177;49.156;8.142;2023-07-29T11:53:27;23.70;99.90
18101;DHT22;9177;49.156;8.142;2023-07-29T11:55:55;23.70;99.90
18101;DHT22;9177;49.156;8.142;2023-07-29T11:58:23;23.70;99.90
18101;DHT22;9177;49.156;8.142;2023-07-29T12:00:51;23.70;99.90
18101;DHT22;9177;49.156;8.142;2023-07-29T12:03:18;23.80;99.90
18101;DHT22;9177;49.156;8.142;2023-07-29T12:05:47;23.80;99.90
18101;DHT22;9177;49.156;8.142;2023-07-29T12:08:15;23.90;99.90
18101;DHT22;9177;49.156;8.142;2023-07-29T12:10:42;23.90;99.90
18101;DHT22;9177;49.156;8.142;2023-07-29T12:13:09;23.90;99.90
18101;DHT22;9177;49.156;8.142;2023-07-29T12:15:38;24.00;99.90
18101;DHT22;9177;49.156;8.142;2023-07-29T12:18:06;24.10;99.90
18101;DHT22;9177;49.156;8.142;2023-07-29T12:20:34;24.10;99.90
18101;DHT22;9177;49.156;8.142;2023-07-29T12:23:03;24.10;99.90
18101;DHT22;9177;49.156;8.142;2023-07-29T12:25:33;24.10;99.90
18101;DHT22;9177;49.156;8.142;2023-07-29T12:28:04;24.10;99.90
18101;DHT22;9177;49.156;8.142;2023-07-29T12:30:32;24.10;99.90
18101;DHT22;9177;49.156;8.142;2023-07-29T12:32:59;24.10;99.90
18101;DHT22;9177;49.156;8.142;2023-07-29T12:35:35;24.00;99.90
18101;DHT22;9177;49.156;8.142;2023-07-29T12:38:04;24.00;99.90
18101;DHT22;9177;49.156;8.142;2023-07-29T12:40:31;24.10;99.90
18101;DHT22;9177;49.156;8.142;2023-07-29T12:42:58;24.10;99.90
18101;DHT22;9177;49.156;8.142;2023-07-29T12:45:25;24.10;99.90
18101;DHT22;9177;49.156;8.142;2023-07-29T12:47:55;24.20;99.90
18101;DHT22;9177;49.156;8.142;2023-07-29T12:50:22;24.10;99.90
18101;DHT22;9177;49.156;8.142;2023-07-29T12:52:49;24.10;99.90
18101;DHT22;9177;49.156;8.142;2023-07-29T12:55:18;24.10;99.90
18101;DHT22;9177;49.156;8.142;2023-07-29T12:57:45;24.10;99.90
18101;DHT22;9177;49.156;8.142;2023-07-29T13:00:13;24.10;99.90
18101;DHT22;9177;49.156;8.142;2023-07-29T13:02:40;24.10;99.90
18101;DHT22;9177;49.156;8.142;2023-07-29T13:05:09;24.20;99.90
18101;DHT22;9177;49.156;8.142;2023-07-29T13:07:37;24.30;99.90
18101;DHT22;9177;49.156;8.142;2023-07-29T13:10:05;24.40;99.90
18101;DHT22;9177;49.156;8.142;2023-07-29T13:12:33;24.40;99.90
18101;DHT22;9177;49.156;8.142;2023-07-29T13:15:01;24.40;99.90
18101;DHT22;9177;49.156;8.142;2023-07-29T13:17:28;24.40;99.90
18101;DHT22;9177;49.156;8.142;2023-07-29T13:19:55;24.40;99.90
18101;DHT22;9177;49.156;8.142;2023-07-29T13:22:22;24.40;99.90
18101;DHT22;9177;49.156;8.142;2023-07-29T13:24:49;24.50;99.90
18101;DHT22;9177;49.156;8.142;2023-07-29T13:27:16;24.50;99.90
18101;DHT22;9177;49.156;8.142;2023-07-29T13:29:45;24.40;99.90
18101;DHT22;9177;49.156;8.142;2023-07-29T13:32:12;24.40;99.90
18101;DHT22;9177;49.156;8.142;2023-07-29T13:34:39;24.40;99.90
18101;DHT22;9177;49.156;8.142;2023-07-29T13:37:06;24.30;99.90
18101;DHT22;9177;49.156;8.142;2023-07-29T13:39:33;24.50;99.90
18101;DHT22;9177;49.156;8.142;2023-07-29T13:42:01;24.60;99.90
18101;DHT22;9177;49.156;8.142;2023-07-29T13:44:28;24.50;99.90
18101;DHT22;9177;49.156;8.142;2023-07-29T13:46:56;24.60;99.90
18101;DHT22;9177;49.156;8.142;2023-07-29T13:49:24;24.70;99.90
18101;DHT22;9177;49.156;8.142;2023-07-29T13:51:51;24.70;99.90
18101;DHT22;9177;49.156;8.142;2023-07-29T13:54:18;24.70;99.90
18101;DHT22;9177;49.156;8.142;2023-07-29T13:56:46;24.70;99.90
18101;DHT22;9177;49.156;8.142;2023-07-29T13:59:13;25.00;99.90
18101;DHT22;9177;49.156;8.142;2023-07-29T14:01:40;24.90;99.90
18101;DHT22;9177;49.156;8.142;2023-07-29T14:04:09;24.90;99.90
18101;DHT22;9177;49.156;8.142;2023-07-29T14:06:36;25.10;99.90
18101;DHT22;9177;49.156;8.142;2023-07-29T14:09:03;25.30;99.90
18101;DHT22;9177;49.156;8.142;2023-07-29T14:11:30;25.30;99.90
18101;DHT22;9177;49.156;8.142;2023-07-29T14:13:57;25.30;99.90
18101;DHT22;9177;49.156;8.142;2023-07-29T14:16:24;25.20;99.90
18101;DHT22;9177;49.156;8.142;2023-07-29T14:18:52;25.10;99.90
18101;DHT22;9177;49.156;8.142;2023-07-29T14:21:24;25.10;99.90
18101;DHT22;9177;49.156;8.142;2023-07-29T14:23:52;25.10;99.90
18101;DHT22;9177;49.156;8.142;2023-07-29T14:26:19;25.00;99.90
18101;DHT22;9177;49.156;8.142;2023-07-29T14:28:46;24.90;99.90
18101;DHT22;9177;49.156;8.142;2023-07-29T14:31:14;24.80;99.90
18101;DHT22;9177;49.156;8.142;2023-07-29T14:33:42;24.80;99.90
18101;DHT22;9177;49.156;8.142;2023-07-29T14:36:10;24.80;99.90
18101;DHT22;9177;49.156;8.142;2023-07-29T14:38:38;24.80;99.90
18101;DHT22;9177;49.156;8.142;2023-07-29T14:41:06;24.70;99.90
18101;DHT22;9177;49.156;8.142;2023-07-29T14:43:33;24.70;99.90
18101;DHT22;9177;49.156;8.142;2023-07-29T14:46:01;24.80;99.90
18101;DHT22;9177;49.156;8.142;2023-07-29T14:48:31;24.90;99.90
18101;DHT22;9177;49.156;8.142;2023-07-29T14:50:58;24.70;99.90
18101;DHT22;9177;49.156;8.142;2023-07-29T14:53:26;24.70;99.90
18101;DHT22;9177;49.156;8.142;2023-07-29T14:55:54;24.70;99.90
18101;DHT22;9177;49.156;8.142;2023-07-29T14:58:21;24.80;99.90
18101;DHT22;9177;49.156;8.142;2023-07-29T15:00:51;24.70;99.90
18101;DHT22;9177;49.156;8.142;2023-07-29T15:03:18;24.70;99.90
18101;DHT22;9177;49.156;8.142;2023-07-29T15:05:45;24.70;99.90
18101;DHT22;9177;49.156;8.142;2023-07-29T15:08:13;24.80;99.90
18101;DHT22;9177;49.156;8.142;2023-07-29T15:10:40;24.90;99.90
18101;DHT22;9177;49.156;8.142;2023-07-29T15:15:46;24.80;99.90
18101;DHT22;9177;49.156;8.142;2023-07-29T15:18:16;24.80;99.90
18101;DHT22;9177;49.156;8.142;2023-07-29T15:20:44;24.70;99.90
18101;DHT22;9177;49.156;8.142;2023-07-29T15:23:11;24.70;99.90
18101;DHT22;9177;49.156;8.142;2023-07-29T15:25:41;24.70;99.90
18101;DHT22;9177;49.156;8.142;2023-07-29T15:28:09;24.70;99.90
18101;DHT22;9177;49.156;8.142;2023-07-29T15:30:36;24.70;99.90
18101;DHT22;9177;49.156;8.142;2023-07-29T15:33:07;24.80;99.90
18101;DHT22;9177;49.156;8.142;2023-07-29T15:35:39;24.70;99.90
18101;DHT22;9177;49.156;8.142;2023-07-29T15:38:08;24.60;99.90
18101;DHT22;9177;49.156;8.142;2023-07-29T15:40:37;24.60;99.90
18101;DHT22;9177;49.156;8.142;2023-07-29T15:43:04;24.50;99.90
18101;DHT22;9177;49.156;8.142;2023-07-29T15:45:35;24.50;99.90
18101;DHT22;9177;49.156;8.142;2023-07-29T15:48:03;24.50;99.90
18101;DHT22;9177;49.156;8.142;2023-07-29T15:50:30;24.50;99.90
18101;DHT22;9177;49.156;8.142;2023-07-29T15:52:57;24.50;99.90